createdAt,value
2024-03-11T00:00:16.789Z,12.35
2024-03-11T00:02:44.394Z,13.27
2024-03-11T00:05:13.494Z,12.40
2024-03-11T00:07:42.067Z,10.45
2024-03-11T00:10:13.152Z,12.98
2024-03-11T00:12:50.529Z,9.88
2024-03-11T00:15:22.183Z,11.20
2024-03-11T00:17:49.423Z,12.43
2024-03-11T00:20:16.361Z,12.57
2024-03-11T00:22:43.184Z,7.30
2024-03-11T00:25:10.679Z,9.73
2024-03-11T00:27:38.084Z,15.35
2024-03-11T00:30:09.924Z,9.55
2024-03-11T00:32:37.652Z,12.82
2024-03-11T00:35:04.892Z,10.20
2024-03-11T00:37:32.897Z,7.85
2024-03-11T00:39:59.700Z,11.45
2024-03-11T00:42:26.352Z,9.82
2024-03-11T00:44:53.052Z,11.75
2024-03-11T00:47:20.252Z,11.50
2024-03-11T00:49:47.160Z,10.82
2024-03-11T00:52:13.856Z,12.43
2024-03-11T00:54:40.684Z,6.38
2024-03-11T00:57:07.723Z,7.50
2024-03-11T00:59:34.641Z,12.75
2024-03-11T01:02:01.574Z,9.20
2024-03-11T01:04:28.344Z,9.95
2024-03-11T01:07:04.297Z,8.80
2024-03-11T01:09:39.307Z,11.88
2024-03-11T01:12:06.977Z,10.18
2024-03-11T01:14:34.160Z,11.95
2024-03-11T01:17:03.446Z,10.30
2024-03-11T01:19:30.159Z,6.13
2024-03-11T01:21:58.501Z,10.00
2024-03-11T01:24:25.461Z,12.02
2024-03-11T01:26:53.110Z,11.50
2024-03-11T01:29:19.935Z,12.38
2024-03-11T01:31:46.932Z,13.13
2024-03-11T01:34:14.324Z,11.60
2024-03-11T01:36:41.106Z,12.02
2024-03-11T01:39:10.602Z,11.68
2024-03-11T01:41:38.311Z,9.93
2024-03-11T01:44:07.132Z,11.30
2024-03-11T01:46:34.827Z,10.68
2024-03-11T01:49:05.784Z,11.48
2024-03-11T01:51:35.306Z,8.63
2024-03-11T01:54:02.556Z,10.23
2024-03-11T01:56:30.091Z,11.55
2024-03-11T01:58:58.992Z,8.73
2024-03-11T02:01:27.899Z,15.55
2024-03-11T02:03:54.621Z,12.02
2024-03-11T02:06:21.333Z,10.60
2024-03-11T02:08:48.045Z,9.65
2024-03-11T02:11:14.853Z,8.10
2024-03-11T02:13:42.807Z,11.45
2024-03-11T02:16:09.637Z,13.13
2024-03-11T02:18:36.299Z,9.77
2024-03-11T02:21:03.468Z,9.30
2024-03-11T02:23:30.442Z,12.10
2024-03-11T02:25:57.183Z,10.70
2024-03-11T02:28:24.877Z,12.27
2024-03-11T02:30:51.518Z,11.30
2024-03-11T02:33:18.486Z,8.48
2024-03-11T02:35:45.292Z,9.10
2024-03-11T02:38:12.080Z,10.80
2024-03-11T02:40:40.395Z,12.07
2024-03-11T02:43:07.989Z,11.55
2024-03-11T02:45:35.704Z,6.18
2024-03-11T02:48:03.064Z,12.57
2024-03-11T02:50:30.085Z,10.43
2024-03-11T02:52:57.722Z,10.38
2024-03-11T02:55:24.664Z,10.82
2024-03-11T02:57:52.624Z,10.80
2024-03-11T03:00:20.278Z,9.73
2024-03-11T03:02:51.174Z,8.25
2024-03-11T03:05:18.728Z,10.65
2024-03-11T03:07:45.455Z,13.70
2024-03-11T03:10:12.699Z,12.95
2024-03-11T03:12:39.560Z,10.85
2024-03-11T03:15:07.726Z,9.73
2024-03-11T03:17:34.988Z,8.43
2024-03-11T03:20:01.982Z,12.13
2024-03-11T03:22:29.312Z,13.68
2024-03-11T03:24:55.975Z,10.30
2024-03-11T03:27:22.748Z,8.48
2024-03-11T03:29:50.276Z,10.68
2024-03-11T03:32:20.789Z,6.85
2024-03-11T03:34:47.624Z,12.23
2024-03-11T03:37:15.646Z,12.50
2024-03-11T03:39:45.570Z,14.10
2024-03-11T03:42:12.298Z,9.93
2024-03-11T03:44:38.982Z,12.43
2024-03-11T03:47:06.127Z,12.75
2024-03-11T03:49:33.974Z,12.02
2024-03-11T03:52:01.045Z,11.45
2024-03-11T03:54:28.949Z,9.77
2024-03-11T03:56:56.125Z,12.23
2024-03-11T03:59:23.460Z,12.95
2024-03-11T04:01:50.251Z,8.48
2024-03-11T04:04:16.928Z,7.80
2024-03-11T04:06:44.578Z,10.15
2024-03-11T04:09:11.457Z,12.02
2024-03-11T04:11:38.292Z,11.35
2024-03-11T04:14:07.281Z,12.73
2024-03-11T04:16:34.040Z,9.48
2024-03-11T04:19:00.736Z,12.65
2024-03-11T04:21:27.346Z,11.48
2024-03-11T04:23:54.150Z,11.90
2024-03-11T04:26:21.181Z,11.00
2024-03-11T04:28:47.760Z,12.02
2024-03-11T04:31:14.546Z,11.73
2024-03-11T04:33:41.645Z,9.93
2024-03-11T04:36:08.371Z,6.13
2024-03-11T04:38:35.138Z,11.43
2024-03-11T04:41:03.812Z,11.77
2024-03-11T04:43:30.837Z,11.45
2024-03-11T04:45:57.437Z,9.50
2024-03-11T04:48:24.928Z,10.27
2024-03-11T04:50:52.797Z,10.45
2024-03-11T04:53:19.860Z,12.05
2024-03-11T04:55:48.102Z,11.45
2024-03-11T04:58:14.739Z,7.70
2024-03-11T05:00:42.065Z,9.13
2024-03-11T05:03:09.146Z,8.95
2024-03-11T05:05:37.637Z,11.60
2024-03-11T05:08:05.700Z,9.32
2024-03-11T05:10:32.876Z,11.23
2024-03-11T05:13:00.335Z,11.05
2024-03-11T05:15:27.936Z,11.45
2024-03-11T05:17:55.478Z,10.63
2024-03-11T05:20:22.950Z,10.45
2024-03-11T05:22:50.500Z,10.55
2024-03-11T05:25:19.206Z,11.65
2024-03-11T05:27:48.398Z,11.43
2024-03-11T05:30:16.143Z,10.98
2024-03-11T05:32:43.112Z,10.35
2024-03-11T05:35:10.215Z,11.52
2024-03-11T05:37:37.351Z,9.73
2024-03-11T05:40:07.945Z,9.07
2024-03-11T05:42:36.100Z,10.95
2024-03-11T05:45:03.977Z,8.57
2024-03-11T05:47:31.275Z,10.52
2024-03-11T05:49:58.047Z,8.98
2024-03-11T05:52:27.500Z,7.68
2024-03-11T05:54:54.725Z,9.32
2024-03-11T05:57:31.338Z,11.35
2024-03-11T05:59:58.293Z,10.63
2024-03-11T06:02:25.172Z,9.85
2024-03-11T06:04:52.354Z,10.70
2024-03-11T06:07:21.594Z,12.63
2024-03-11T06:09:48.682Z,10.68
2024-03-11T06:12:15.478Z,9.18
2024-03-11T06:14:42.318Z,11.23
2024-03-11T06:17:11.961Z,11.00
2024-03-11T06:19:39.204Z,8.45
2024-03-11T06:22:06.323Z,10.85
2024-03-11T06:24:34.560Z,11.52
2024-03-11T06:27:01.181Z,9.45
2024-03-11T06:29:28.254Z,9.05
2024-03-11T06:31:56.438Z,9.85
2024-03-11T06:34:24.783Z,10.85
2024-03-11T06:36:51.943Z,12.18
2024-03-11T06:39:19.681Z,8.55
2024-03-11T06:41:46.452Z,9.60
2024-03-11T06:44:18.023Z,5.63
2024-03-11T06:46:49.256Z,6.53
2024-03-11T06:49:16.646Z,10.75
2024-03-11T06:51:43.226Z,12.00
2024-03-11T06:54:09.910Z,8.65
2024-03-11T06:56:36.556Z,9.82
2024-03-11T06:59:03.260Z,10.65
2024-03-11T07:01:30.544Z,9.60
2024-03-11T07:03:57.424Z,9.48
2024-03-11T07:06:26.836Z,9.63
2024-03-11T07:08:53.545Z,9.95
2024-03-11T07:11:20.351Z,6.60
2024-03-11T07:13:47.046Z,11.32
2024-03-11T07:16:13.891Z,9.40
2024-03-11T07:18:43.419Z,9.40
2024-03-11T07:21:11.912Z,9.70
2024-03-11T07:23:38.566Z,7.70
2024-03-11T07:26:05.778Z,8.88
2024-03-11T07:28:35.435Z,10.68
2024-03-11T07:31:02.447Z,9.63
2024-03-11T07:33:29.244Z,9.00
2024-03-11T07:35:59.131Z,8.73
2024-03-11T07:38:27.182Z,11.52
2024-03-11T07:40:53.985Z,8.82
2024-03-11T07:43:20.626Z,9.15
2024-03-11T07:45:47.400Z,11.27
2024-03-11T07:48:14.371Z,8.40
2024-03-11T07:50:42.078Z,11.18
2024-03-11T07:53:09.907Z,11.90
2024-03-11T07:55:36.838Z,14.75
2024-03-11T07:58:04.237Z,11.65
2024-03-11T08:00:31.405Z,9.88
2024-03-11T08:02:59.261Z,11.00
2024-03-11T08:05:26.962Z,9.13
2024-03-11T08:07:53.634Z,12.88
2024-03-11T08:10:20.620Z,12.00
2024-03-11T08:12:52.525Z,11.60
2024-03-11T08:15:21.965Z,8.65
2024-03-11T08:17:51.090Z,14.98
2024-03-11T08:20:19.898Z,10.27
2024-03-11T08:22:49.042Z,10.15
2024-03-11T08:25:24.508Z,9.35
2024-03-11T08:27:53.801Z,11.15
2024-03-11T08:30:23.223Z,11.88
2024-03-11T08:32:54.493Z,10.43
2024-03-11T08:35:25.277Z,10.13
2024-03-11T08:37:52.473Z,11.65
2024-03-11T08:40:21.374Z,10.13
2024-03-11T08:42:49.584Z,11.02
2024-03-11T08:45:19.986Z,7.40
2024-03-11T08:47:48.115Z,10.95
2024-03-11T08:50:18.679Z,7.10
2024-03-11T08:52:47.070Z,10.07
2024-03-11T08:57:46.980Z,10.43
2024-03-11T09:00:17.401Z,10.23
2024-03-11T09:02:46.601Z,9.40
2024-03-11T09:05:14.730Z,10.85
2024-03-11T09:07:42.416Z,7.55
2024-03-11T09:10:10.897Z,9.98
2024-03-11T09:15:25.019Z,10.50
2024-03-11T09:17:53.260Z,8.27
2024-03-11T09:20:23.091Z,10.82
2024-03-11T09:22:54.579Z,11.68
2024-03-11T09:25:27.004Z,10.60
2024-03-11T09:28:03.627Z,11.15
2024-03-11T09:30:34.505Z,11.77
2024-03-11T09:33:03.007Z,10.95
2024-03-11T09:35:30.714Z,13.15
2024-03-11T09:37:58.594Z,6.25
2024-03-11T09:40:29.323Z,11.10
2024-03-11T09:42:57.832Z,12.63
2024-03-11T09:45:31.155Z,13.68
2024-03-11T09:48:00.612Z,13.10
2024-03-11T09:50:35.249Z,9.88
2024-03-11T09:53:05.551Z,11.20
2024-03-11T09:55:35.132Z,11.20
2024-03-11T09:58:15.030Z,11.05
2024-03-11T10:00:51.415Z,8.93
2024-03-11T10:03:34.545Z,14.27
2024-03-11T10:06:09.064Z,15.60
2024-03-11T10:08:37.085Z,12.77
2024-03-11T10:11:22.542Z,9.57
2024-03-11T10:13:54.379Z,12.60
2024-03-11T10:16:23.459Z,11.00
2024-03-11T10:19:13.484Z,10.23
2024-03-11T10:21:42.439Z,11.65
2024-03-11T10:26:43.411Z,13.10
2024-03-11T10:29:19.148Z,10.77
2024-03-11T10:31:46.895Z,13.00
2024-03-11T10:34:17.860Z,8.75
2024-03-11T10:36:47.886Z,11.18
2024-03-11T10:39:19.637Z,12.30
2024-03-11T10:41:53.432Z,9.63
2024-03-11T10:44:25.462Z,12.15
2024-03-11T10:46:52.664Z,8.85
2024-03-11T10:49:22.789Z,12.75
2024-03-11T10:51:49.614Z,14.70
2024-03-11T10:54:44.580Z,11.50
2024-03-11T10:57:40.385Z,8.93
2024-03-11T11:00:18.356Z,13.30
2024-03-11T11:02:48.076Z,10.25
2024-03-11T11:05:17.222Z,13.68
2024-03-11T11:07:45.136Z,11.80
2024-03-11T11:10:19.161Z,11.27
2024-03-11T11:12:47.155Z,13.02
2024-03-11T11:15:15.320Z,12.70
2024-03-11T11:17:43.803Z,9.13
2024-03-11T11:20:34.168Z,13.13
2024-03-11T11:23:01.899Z,11.43
2024-03-11T11:25:41.606Z,12.52
2024-03-11T11:28:09.103Z,12.70
2024-03-11T11:30:37.913Z,12.60
2024-03-11T11:33:05.758Z,11.93
2024-03-11T11:35:35.031Z,16.25
2024-03-11T11:38:25.031Z,12.00
2024-03-11T11:40:55.098Z,13.25
2024-03-11T11:43:22.539Z,12.30
2024-03-11T11:45:56.819Z,9.88
2024-03-11T11:48:29.300Z,10.63
2024-03-11T11:51:00.668Z,10.02
2024-03-11T11:53:29.124Z,9.02
2024-03-11T11:55:57.909Z,14.07
2024-03-11T11:58:25.798Z,14.15
2024-03-11T12:01:02.897Z,11.38
2024-03-11T12:03:32.092Z,10.70
2024-03-11T12:06:22.229Z,11.25
2024-03-11T12:08:49.435Z,11.48
2024-03-11T12:11:19.232Z,8.27
2024-03-11T12:13:50.797Z,13.32
2024-03-11T12:16:25.418Z,12.40
2024-03-11T12:19:01.446Z,9.50
2024-03-11T12:21:30.141Z,13.93
2024-03-11T12:23:57.913Z,12.60
2024-03-11T12:26:32.073Z,13.70
2024-03-11T12:29:14.391Z,10.07
2024-03-11T12:31:42.987Z,12.23
2024-03-11T12:34:11.893Z,14.32
2024-03-11T12:36:42.126Z,9.55
2024-03-11T12:39:27.623Z,11.13
2024-03-11T12:41:58.683Z,10.60
2024-03-11T12:44:27.371Z,15.45
2024-03-11T12:46:57.563Z,13.23
2024-03-11T12:49:29.462Z,13.57
2024-03-11T12:52:14.286Z,15.30
2024-03-11T12:54:41.248Z,14.95
2024-03-11T12:57:17.245Z,15.40
2024-03-11T12:59:58.258Z,11.38
2024-03-11T13:02:25.096Z,15.80
2024-03-11T13:04:54.634Z,12.02
2024-03-11T13:07:24.838Z,14.27
2024-03-11T13:09:55.866Z,13.90
2024-03-11T13:12:23.383Z,12.85
2024-03-11T13:14:51.379Z,15.65
2024-03-11T13:17:24.259Z,13.65
2024-03-11T13:19:57.710Z,16.02
2024-03-11T13:22:24.618Z,14.88
2024-03-11T13:25:06.591Z,11.85
2024-03-11T13:27:34.248Z,10.82
2024-03-11T13:30:03.062Z,15.55
2024-03-11T13:32:32.409Z,15.52
2024-03-11T13:35:00.350Z,13.55
2024-03-11T13:37:27.288Z,9.10
2024-03-11T13:39:53.991Z,14.90
2024-03-11T13:42:21.289Z,13.20
2024-03-11T13:44:50.807Z,14.18
2024-03-11T13:47:17.698Z,16.98
2024-03-11T13:49:47.556Z,14.23
2024-03-11T13:52:15.160Z,15.80
2024-03-11T13:54:42.105Z,14.07
2024-03-11T13:57:09.896Z,14.40
2024-03-11T13:59:37.719Z,10.60
2024-03-11T14:02:04.816Z,15.75
2024-03-11T14:04:31.531Z,8.20
2024-03-11T14:06:59.733Z,15.50
2024-03-11T14:09:27.056Z,14.77
2024-03-11T14:11:54.166Z,15.98
2024-03-11T14:14:21.096Z,16.52
2024-03-11T14:16:50.425Z,15.05
2024-03-11T14:19:19.318Z,12.85
2024-03-11T14:21:47.144Z,16.08
2024-03-11T14:24:18.911Z,16.15
2024-03-11T14:26:45.691Z,14.25
2024-03-11T14:29:16.705Z,14.68
2024-03-11T14:31:47.953Z,14.40
2024-03-11T14:34:15.479Z,15.75
2024-03-11T14:36:45.299Z,16.75
2024-03-11T14:39:19.112Z,19.35
2024-03-11T14:41:49.284Z,14.45
2024-03-11T14:44:16.481Z,13.57
2024-03-11T14:46:53.067Z,16.08
2024-03-11T14:49:25.736Z,16.65
2024-03-11T14:51:54.983Z,15.85
2024-03-11T14:54:31.118Z,13.40
2024-03-11T14:56:58.348Z,15.88
2024-03-11T14:59:25.918Z,18.00
2024-03-11T15:01:57.187Z,14.75
2024-03-11T15:04:27.726Z,15.98
2024-03-11T15:06:55.182Z,17.67
2024-03-11T15:09:23.736Z,17.17
2024-03-11T15:11:56.368Z,18.15
2024-03-11T15:14:23.160Z,18.00
2024-03-11T15:16:53.701Z,15.60
2024-03-11T15:19:21.362Z,18.80
2024-03-11T15:21:48.986Z,18.15
2024-03-11T15:24:18.139Z,16.58
2024-03-11T15:26:46.004Z,12.98
2024-03-11T15:29:12.691Z,13.80
2024-03-11T15:31:39.307Z,18.00
2024-03-11T15:34:06.433Z,16.63
2024-03-11T15:36:33.674Z,17.73
2024-03-11T15:39:00.949Z,20.92
2024-03-11T15:41:28.040Z,21.00
2024-03-11T15:43:56.981Z,17.48
2024-03-11T15:46:29.586Z,19.63
2024-03-11T15:48:59.931Z,18.98
2024-03-11T15:51:27.496Z,14.52
2024-03-11T15:53:55.037Z,11.15
2024-03-11T15:56:22.596Z,21.58
2024-03-11T15:58:58.570Z,15.98
2024-03-11T16:01:28.472Z,12.93
2024-03-11T16:03:59.234Z,17.85
2024-03-11T16:06:26.503Z,19.95
2024-03-11T16:08:54.794Z,15.02
2024-03-11T16:13:50.131Z,18.33
2024-03-11T16:16:19.956Z,19.60
2024-03-11T16:18:47.568Z,16.65
2024-03-11T16:21:14.991Z,18.98
2024-03-11T16:23:43.213Z,20.33
2024-03-11T16:26:10.408Z,15.98
2024-03-11T16:28:37.955Z,17.55
2024-03-11T16:31:06.242Z,14.68
2024-03-11T16:33:33.481Z,9.30
2024-03-11T16:36:02.046Z,18.63
2024-03-11T16:38:28.785Z,16.58
2024-03-11T16:40:55.420Z,21.05
2024-03-11T16:43:22.381Z,13.95
2024-03-11T16:45:50.388Z,22.50
2024-03-11T16:48:18.572Z,14.77
2024-03-11T16:50:52.624Z,15.65
2024-03-11T16:53:22.568Z,16.95
2024-03-11T16:55:52.246Z,18.67
2024-03-11T16:58:19.267Z,20.13
2024-03-11T17:00:50.121Z,21.30
2024-03-11T17:03:20.579Z,21.48
2024-03-11T17:05:47.625Z,20.52
2024-03-11T17:08:15.928Z,21.38
2024-03-11T17:10:46.509Z,21.50
2024-03-11T17:13:16.106Z,18.58
2024-03-11T17:15:43.993Z,20.63
2024-03-11T17:18:13.580Z,20.08
2024-03-11T17:20:54.774Z,16.92
2024-03-11T17:23:23.645Z,21.17
2024-03-11T17:25:54.301Z,20.27
2024-03-11T17:28:27.114Z,21.35
2024-03-11T17:30:55.543Z,22.83
2024-03-11T17:33:23.663Z,21.58
2024-03-11T17:35:51.747Z,20.38
2024-03-11T17:40:49.307Z,18.50
2024-03-11T17:43:18.412Z,15.10
2024-03-11T17:45:45.977Z,19.10
2024-03-11T17:48:17.965Z,19.65
2024-03-11T17:50:47.145Z,16.13
2024-03-11T17:53:14.499Z,17.27
2024-03-11T17:55:42.692Z,16.55
2024-03-11T17:58:12.483Z,19.33
2024-03-11T18:00:41.418Z,18.27
2024-03-11T18:03:08.545Z,17.10
2024-03-11T18:05:37.763Z,16.33
2024-03-11T18:08:07.718Z,15.00
2024-03-11T18:10:42.255Z,18.33
2024-03-11T18:13:13.261Z,20.25
2024-03-11T18:15:42.049Z,18.10
2024-03-11T18:18:11.731Z,16.23
2024-03-11T18:20:42.298Z,11.88
2024-03-11T18:23:14.861Z,13.23
2024-03-11T18:25:43.393Z,16.42
2024-03-11T18:28:10.367Z,14.43
2024-03-11T18:30:37.599Z,15.00
2024-03-11T18:33:06.560Z,14.60
2024-03-11T18:35:38.161Z,15.73
2024-03-11T18:38:08.372Z,17.52
2024-03-11T18:40:35.709Z,17.30
2024-03-11T18:43:05.040Z,16.17
2024-03-11T18:45:33.682Z,17.38
2024-03-11T18:48:01.743Z,18.10
2024-03-11T18:50:29.329Z,18.63
2024-03-11T18:53:00.400Z,18.38
2024-03-11T18:55:31.073Z,14.00
2024-03-11T18:57:59.742Z,16.17
2024-03-11T19:00:32.851Z,11.38
2024-03-11T19:03:02.388Z,14.65
2024-03-11T19:05:30.716Z,18.40
2024-03-11T19:07:58.444Z,14.43
2024-03-11T19:10:28.240Z,17.02
2024-03-11T19:12:57.096Z,13.48
2024-03-11T19:15:29.519Z,18.60
2024-03-11T19:17:56.966Z,14.40
2024-03-11T19:20:26.509Z,14.68
2024-03-11T19:22:54.533Z,16.92
2024-03-11T19:25:25.535Z,13.48
2024-03-11T19:27:54.203Z,16.10
2024-03-11T19:32:58.560Z,15.25
2024-03-11T19:35:26.480Z,14.98
2024-03-11T19:38:29.073Z,18.00
2024-03-11T19:41:24.766Z,18.88
2024-03-11T19:44:19.893Z,15.90
2024-03-11T19:47:24.934Z,18.60
2024-03-11T19:50:16.386Z,18.55
2024-03-11T19:53:21.256Z,18.85
2024-03-11T19:55:56.955Z,19.67
2024-03-11T19:58:50.602Z,20.02
2024-03-11T20:01:41.099Z,17.60
2024-03-11T20:04:26.010Z,19.90
2024-03-11T20:07:12.359Z,19.35
2024-03-11T20:10:17.995Z,14.90
2024-03-11T20:13:04.206Z,19.35
2024-03-11T20:15:41.774Z,14.75
2024-03-11T20:18:24.160Z,19.83
2024-03-11T20:21:10.501Z,20.15
2024-03-11T20:24:04.951Z,19.48
2024-03-11T20:26:39.011Z,18.80
2024-03-11T20:29:18.607Z,20.90
2024-03-11T20:31:56.433Z,21.02
2024-03-11T20:34:23.844Z,20.17
2024-03-11T20:36:50.520Z,21.67
2024-03-11T20:39:17.767Z,18.95
2024-03-11T20:41:44.708Z,18.90
2024-03-11T20:44:12.781Z,22.50
2024-03-11T20:46:39.732Z,19.48
2024-03-11T20:49:06.988Z,16.25
2024-03-11T20:51:34.181Z,20.83
2024-03-11T20:54:00.973Z,21.00
2024-03-11T20:56:28.251Z,22.45
2024-03-11T20:58:54.960Z,22.77
2024-03-11T21:01:21.800Z,21.38
2024-03-11T21:03:49.071Z,21.23
2024-03-11T21:06:15.682Z,20.65
2024-03-11T21:08:44.310Z,21.00
2024-03-11T21:11:11.117Z,22.45
2024-03-11T21:13:39.257Z,22.08
2024-03-11T21:16:12.421Z,22.48
2024-03-11T21:18:40.315Z,21.35
2024-03-11T21:21:09.710Z,20.25
2024-03-11T21:23:47.819Z,22.27
2024-03-11T21:26:29.588Z,21.10
2024-03-11T21:28:59.594Z,21.25
2024-03-11T21:31:31.163Z,20.33
2024-03-11T21:33:58.009Z,22.20
2024-03-11T21:36:25.004Z,23.70
2024-03-11T21:38:51.712Z,17.77
2024-03-11T21:41:22.043Z,22.23
2024-03-11T21:43:49.278Z,23.42
2024-03-11T21:46:16.096Z,23.13
2024-03-11T21:48:43.021Z,23.17
2024-03-11T21:51:09.814Z,23.08
2024-03-11T21:53:37.791Z,22.60
2024-03-11T21:56:07.602Z,21.92
2024-03-11T21:58:34.740Z,21.75
2024-03-11T22:01:01.932Z,22.25
2024-03-11T22:03:28.676Z,20.58
2024-03-11T22:05:55.486Z,22.15
2024-03-11T22:08:22.408Z,22.38
2024-03-11T22:10:48.983Z,24.13
2024-03-11T22:13:15.677Z,21.20
2024-03-11T22:15:44.131Z,24.05
2024-03-11T22:18:12.340Z,23.88
2024-03-11T22:20:39.152Z,25.85
2024-03-11T22:23:06.250Z,23.58
2024-03-11T22:25:32.897Z,23.17
2024-03-11T22:27:59.755Z,23.67
2024-03-11T22:30:26.591Z,23.30
2024-03-11T22:32:53.501Z,22.63
2024-03-11T22:35:20.746Z,23.98
2024-03-11T22:37:47.710Z,22.48
2024-03-11T22:40:14.768Z,25.23
2024-03-11T22:42:41.606Z,25.15
2024-03-11T22:45:09.092Z,24.98
2024-03-11T22:47:36.089Z,24.90
2024-03-11T22:50:02.815Z,24.67
2024-03-11T22:52:29.503Z,26.13
2024-03-11T22:54:56.235Z,27.67
2024-03-11T22:57:23.194Z,23.58
2024-03-11T22:59:49.901Z,24.60
2024-03-11T23:02:22.779Z,26.70
2024-03-11T23:04:50.972Z,25.98
2024-03-11T23:07:24.506Z,21.05
2024-03-11T23:09:51.518Z,24.67
2024-03-11T23:12:18.255Z,25.85
2024-03-11T23:14:44.885Z,25.95
2024-03-11T23:17:16.207Z,24.20
2024-03-11T23:19:45.446Z,21.73
2024-03-11T23:22:16.531Z,23.10
2024-03-11T23:24:44.069Z,24.60
2024-03-11T23:27:10.740Z,23.80
2024-03-11T23:29:38.721Z,23.52
2024-03-11T23:32:08.051Z,21.95
2024-03-11T23:34:35.135Z,25.15
2024-03-11T23:37:01.889Z,23.90
2024-03-11T23:39:28.830Z,20.48
2024-03-11T23:41:56.068Z,24.48
2024-03-11T23:44:23.003Z,23.35
2024-03-11T23:46:49.782Z,22.48
2024-03-11T23:49:17.260Z,23.25
2024-03-11T23:51:46.438Z,21.30
2024-03-11T23:54:13.452Z,21.23
2024-03-11T23:56:44.278Z,23.58
2024-03-11T23:59:14.679Z,24.08
